Time;durP1;ratioP1;P1;durP2;ratioP2;P2;SDS_P1;SDS_P2;PMS_P1;PMS_P2;Temp;Humidity;BMP_temperature;BMP_pressure;BME280_temperature;BME280_humidity;BME280_pressure;Samples;Min_cycle;Max_cycle;Signal;HPM_P1;HPM_P2
2022/12/11 00:01:36;;;;;;;52.65;28.52;;;;;;;;;;5049735;28;20463;-69
2022/12/11 00:04:01;;;;;;;53.00;31.25;;;;;;;;;;5047065;28;20021;-69
2022/12/11 00:06:26;;;;;;;50.85;29.55;;;;;;;;;;5056048;28;20044;-69
2022/12/11 00:08:53;;;;;;;52.22;30.65;;;;;;;;;;5050859;28;20017;-69
2022/12/11 00:11:18;;;;;;;50.15;29.92;;;;;;;;;;5050618;28;20029;-69
2022/12/11 00:13:44;;;;;;;47.65;27.55;;;;;;;;;;5047374;28;20021;-69
2022/12/11 00:16:09;;;;;;;55.65;29.42;;;;;;;;;;5055343;28;20017;-68
2022/12/11 00:18:34;;;;;;;55.42;29.05;;;;;;;;;;5044449;28;20100;-68
2022/12/11 00:21:00;;;;;;;44.65;27.58;;;;;;;;;;5033665;28;20032;-68
2022/12/11 00:23:26;;;;;;;43.58;27.33;;;;;;;;;;5031543;28;20060;-68
2022/12/11 00:25:51;;;;;;;49.58;27.08;;;;;;;;;;5033024;28;20076;-68
2022/12/11 00:28:19;;;;;;;47.30;27.85;;;;;;;;;;5033237;28;20060;-68
2022/12/11 00:30:44;;;;;;;49.00;27.35;;;;;;;;;;5033925;28;20057;-68
2022/12/11 00:33:11;;;;;;;52.28;30.30;;;;;;;;;;5033706;28;20088;-68
2022/12/11 00:35:54;;;;;;;43.95;24.88;;;;;;;;;;5044027;28;20032;-69
2022/12/11 00:38:20;;;;;;;49.33;28.30;;;;;;;;;;5040993;28;20480;-68
2022/12/11 00:40:45;;;;;;;47.72;26.50;;;;;;;;;;5050918;28;20024;-68
2022/12/11 00:43:11;;;;;;;49.33;27.67;;;;;;;;;;5050284;28;20021;-68
2022/12/11 00:45:40;;;;;;;43.97;27.17;;;;;;;;;;5064713;28;20013;-69
2022/12/11 00:48:06;;;;;;;47.35;26.95;;;;;;;;;;5051882;28;20060;-69
2022/12/11 00:50:31;;;;;;;51.22;26.48;;;;;;;;;;5048303;28;20441;-69
2022/12/11 00:52:57;;;;;;;44.97;27.92;;;;;;;;;;5031909;28;20087;-68
2022/12/11 00:55:22;;;;;;;41.90;25.33;;;;;;;;;;5032364;28;20476;-68
2022/12/11 00:57:50;;;;;;;49.05;25.27;;;;;;;;;;5038563;28;20099;-68
2022/12/11 01:00:15;;;;;;;48.60;26.73;;;;;;;;;;5039847;28;20495;-68
2022/12/11 01:02:40;;;;;;;44.05;25.45;;;;;;;;;;5034194;28;20147;-68
2022/12/11 01:05:06;;;;;;;43.92;26.15;;;;;;;;;;5035871;28;20048;-68
2022/12/11 01:07:31;;;;;;;47.42;26.13;;;;;;;;;;5034261;28;20857;-69
2022/12/11 01:12:40;;;;;;;38.75;24.80;;;;;;;;;;5034383;28;20214;-69
2022/12/11 01:15:06;;;;;;;42.70;24.73;;;;;;;;;;5038974;28;20020;-69
2022/12/11 01:17:31;;;;;;;41.03;25.20;;;;;;;;;;5062051;28;20115;-69
2022/12/11 01:19:56;;;;;;;39.92;24.52;;;;;;;;;;5035518;28;20026;-69
2022/12/11 01:22:21;;;;;;;38.45;22.88;;;;;;;;;;5030972;28;20121;-69
2022/12/11 01:24:47;;;;;;;41.83;24.58;;;;;;;;;;5043213;28;20499;-69
2022/12/11 01:27:12;;;;;;;37.65;23.77;;;;;;;;;;5041351;28;20666;-69
2022/12/11 01:29:37;;;;;;;38.20;22.85;;;;;;;;;;5050161;28;20022;-69
2022/12/11 01:32:03;;;;;;;37.38;23.90;;;;;;;;;;5046558;28;20048;-69
2022/12/11 01:34:29;;;;;;;40.90;22.40;;;;;;;;;;5048937;28;20387;-69
2022/12/11 01:36:54;;;;;;;39.13;23.63;;;;;;;;;;5035578;28;20092;-69
2022/12/11 01:39:19;;;;;;;39.42;22.30;;;;;;;;;;5040463;28;20471;-69
2022/12/11 01:41:44;;;;;;;39.22;22.13;;;;;;;;;;5031581;28;20432;-70
2022/12/11 01:44:13;;;;;;;34.50;23.40;;;;;;;;;;5043186;28;20025;-70
2022/12/11 01:46:38;;;;;;;33.55;22.38;;;;;;;;;;5041309;28;20495;-69
2022/12/11 01:49:06;;;;;;;35.97;21.48;;;;;;;;;;5034728;28;20017;-69
2022/12/11 01:51:32;;;;;;;40.75;23.25;;;;;;;;;;5029504;28;20499;-70
2022/12/11 01:53:59;;;;;;;43.85;22.25;;;;;;;;;;5043795;28;20040;-70
2022/12/11 01:56:24;;;;;;;41.20;21.15;;;;;;;;;;5030608;28;20040;-70
2022/12/11 01:58:52;;;;;;;36.58;20.85;;;;;;;;;;5031974;28;20017;-69
2022/12/11 02:01:23;;;;;;;36.08;21.15;;;;;;;;;;5041996;28;20765;-70
2022/12/11 02:03:49;;;;;;;39.05;21.92;;;;;;;;;;5043489;28;20053;-69
2022/12/11 02:06:47;;;;;;;39.35;21.33;;;;;;;;;;5043904;28;20025;-70
2022/12/11 02:09:14;;;;;;;37.97;20.70;;;;;;;;;;5023283;28;20558;-69
2022/12/11 02:11:39;;;;;;;36.08;21.60;;;;;;;;;;5035598;28;20036;-69
2022/12/11 02:14:08;;;;;;;33.38;20.35;;;;;;;;;;5035208;28;20397;-69
2022/12/11 02:16:42;;;;;;;36.45;20.23;;;;;;;;;;5038642;28;20028;-69
2022/12/11 02:19:07;;;;;;;;;;;;;;;;;;5054151;28;20151;-69
2022/12/11 02:21:53;;;;;;;37.03;19.65;;;;;;;;;;5050807;28;20007;-69
2022/12/11 02:24:21;;;;;;;37.05;20.77;;;;;;;;;;5052352;28;20037;-68
2022/12/11 02:27:01;;;;;;;32.60;19.75;;;;;;;;;;5054392;28;20052;-68
2022/12/11 02:29:34;;;;;;;34.00;21.52;;;;;;;;;;5054705;28;20013;-68
2022/12/11 02:32:04;;;;;;;33.58;19.75;;;;;;;;;;5054824;28;20024;-69
2022/12/11 02:34:52;;;;;;;38.28;20.17;;;;;;;;;;5054427;28;20459;-69
2022/12/11 02:37:19;;;;;;;35.30;21.55;;;;;;;;;;5054190;28;20029;-69
2022/12/11 02:39:45;;;;;;;34.97;20.00;;;;;;;;;;5042098;28;20025;-68
2022/12/11 02:42:11;;;;;;;35.00;19.20;;;;;;;;;;5041368;28;20029;-69
2022/12/11 02:44:37;;;;;;;29.85;18.15;;;;;;;;;;5034804;28;20021;-69
2022/12/11 02:47:03;;;;;;;34.10;18.05;;;;;;;;;;5036281;28;20027;-69
2022/12/11 02:49:29;;;;;;;36.92;20.55;;;;;;;;;;5035124;28;20053;-69
2022/12/11 02:51:55;;;;;;;32.33;19.05;;;;;;;;;;5034497;28;20155;-69
2022/12/11 02:54:28;;;;;;;31.38;19.33;;;;;;;;;;5045471;28;20488;-68
2022/12/11 02:57:01;;;;;;;30.40;18.90;;;;;;;;;;5035618;28;20029;-68
2022/12/11 02:59:29;;;;;;;25.10;16.88;;;;;;;;;;5034871;28;20480;-68
2022/12/11 03:01:55;;;;;;;30.23;17.80;;;;;;;;;;5038390;28;20468;-68
2022/12/11 03:04:23;;;;;;;29.67;17.88;;;;;;;;;;5045420;28;20023;-68
2022/12/11 03:06:51;;;;;;;36.10;19.48;;;;;;;;;;5046561;28;20344;-69
2022/12/11 03:09:16;;;;;;;31.55;18.83;;;;;;;;;;5072903;28;20016;-69
2022/12/11 03:11:41;;;;;;;29.08;16.08;;;;;;;;;;5069085;28;20502;-69
2022/12/11 03:14:07;;;;;;;29.48;18.92;;;;;;;;;;5035885;28;20395;-69
2022/12/11 03:16:37;;;;;;;27.65;17.40;;;;;;;;;;5058651;28;20049;-69
2022/12/11 03:19:05;;;;;;;34.92;18.10;;;;;;;;;;5051661;28;20395;-69
2022/12/11 03:21:36;;;;;;;34.03;19.10;;;;;;;;;;5039317;28;20849;-69
2022/12/11 03:24:01;;;;;;;30.20;17.45;;;;;;;;;;5059297;28;20016;-69
2022/12/11 03:26:27;;;;;;;27.48;16.73;;;;;;;;;;5046412;28;20024;-69
2022/12/11 03:29:12;;;;;;;27.42;17.08;;;;;;;;;;5053968;28;20049;-69
2022/12/11 03:31:41;;;;;;;28.58;17.80;;;;;;;;;;5052305;28;20017;-69
2022/12/11 03:34:18;;;;;;;32.40;18.38;;;;;;;;;;5054183;28;20717;-69
2022/12/11 03:36:44;;;;;;;32.58;19.08;;;;;;;;;;5048552;28;20075;-68
2022/12/11 03:39:15;;;;;;;33.13;20.02;;;;;;;;;;5050991;28;20040;-68
2022/12/11 03:41:42;;;;;;;33.42;18.85;;;;;;;;;;5062182;28;20103;-69
2022/12/11 03:44:08;;;;;;;28.60;16.60;;;;;;;;;;5034742;28;20020;-69
2022/12/11 03:46:35;;;;;;;25.83;16.55;;;;;;;;;;5056423;28;20017;-69
2022/12/11 03:49:02;;;;;;;30.05;19.15;;;;;;;;;;5053023;28;20368;-69
2022/12/11 03:51:29;;;;;;;28.42;17.92;;;;;;;;;;5052811;28;20036;-69
2022/12/11 03:53:55;;;;;;;29.67;18.73;;;;;;;;;;5050692;28;20545;-69
2022/12/11 03:56:21;;;;;;;32.45;19.10;;;;;;;;;;5052149;28;20024;-68
2022/12/11 03:58:46;;;;;;;26.63;17.63;;;;;;;;;;5051053;28;20429;-69
2022/12/11 04:01:11;;;;;;;31.58;18.42;;;;;;;;;;5052923;28;20025;-68
2022/12/11 04:03:37;;;;;;;27.13;17.23;;;;;;;;;;5052054;28;20021;-68
2022/12/11 04:06:02;;;;;;;30.60;18.42;;;;;;;;;;5038253;28;20032;-68
2022/12/11 04:08:27;;;;;;;26.75;18.25;;;;;;;;;;5051381;28;20013;-69
2022/12/11 04:11:33;;;;;;;30.75;18.92;;;;;;;;;;5051167;28;20029;-68
2022/12/11 04:13:38;;;;;;;32.70;18.83;;;;;;;;;;5060751;28;20090;-69
2022/12/11 04:16:04;;;;;;;27.35;17.92;;;;;;;;;;5062897;28;20028;-69
2022/12/11 04:24:15;;;;;;;26.13;16.67;;;;;;;;;;5045389;28;20634;-68
2022/12/11 04:26:41;;;;;;;28.60;17.25;;;;;;;;;;5031938;28;20025;-69
2022/12/11 04:29:06;;;;;;;21.92;15.23;;;;;;;;;;5033452;28;20021;-69
2022/12/11 04:31:31;;;;;;;28.08;15.73;;;;;;;;;;5052211;28;20467;-69
2022/12/11 04:33:56;;;;;;;22.38;15.60;;;;;;;;;;5052076;28;20032;-68
2022/12/11 04:36:22;;;;;;;28.52;15.65;;;;;;;;;;5049530;28;20025;-69
2022/12/11 04:38:47;;;;;;;25.98;17.05;;;;;;;;;;5049168;28;20041;-69
2022/12/11 04:41:13;;;;;;;25.33;17.10;;;;;;;;;;5039682;28;20456;-68
2022/12/11 04:43:39;;;;;;;24.55;15.48;;;;;;;;;;5037324;28;20495;-69
2022/12/11 04:46:04;;;;;;;25.98;16.98;;;;;;;;;;5040047;28;20017;-69
2022/12/11 04:48:30;;;;;;;26.98;17.08;;;;;;;;;;5049928;28;20028;-69
2022/12/11 04:50:55;;;;;;;27.45;17.25;;;;;;;;;;5049450;28;20104;-69
2022/12/11 04:53:20;;;;;;;22.88;15.27;;;;;;;;;;5049456;28;20108;-69
2022/12/11 04:55:45;;;;;;;31.30;16.92;;;;;;;;;;5048320;28;20032;-69
2022/12/11 04:58:12;;;;;;;28.00;15.68;;;;;;;;;;5049238;28;20052;-68
2022/12/11 05:00:38;;;;;;;28.58;17.20;;;;;;;;;;5037604;28;20023;-69
2022/12/11 05:03:04;;;;;;;27.23;15.40;;;;;;;;;;5047182;28;20096;-69
2022/12/11 05:05:29;;;;;;;24.48;15.57;;;;;;;;;;5048278;28;20523;-69
2022/12/11 05:07:54;;;;;;;25.55;16.85;;;;;;;;;;5046763;28;20017;-68
2022/12/11 05:10:19;;;;;;;27.08;17.08;;;;;;;;;;5048009;28;20016;-69
2022/12/11 05:12:44;;;;;;;27.00;17.05;;;;;;;;;;5047876;28;20096;-68
2022/12/11 05:15:10;;;;;;;32.08;17.98;;;;;;;;;;5054877;28;20425;-69
2022/12/11 05:17:35;;;;;;;24.17;14.80;;;;;;;;;;5055094;28;20459;-68
2022/12/11 05:20:00;;;;;;;26.00;15.13;;;;;;;;;;5035951;28;20123;-69
2022/12/11 05:22:25;;;;;;;23.17;14.50;;;;;;;;;;5048695;28;20775;-69
2022/12/11 05:24:51;;;;;;;28.73;14.50;;;;;;;;;;5048834;28;20067;-69
2022/12/11 05:27:16;;;;;;;23.45;14.57;;;;;;;;;;5048338;28;20405;-68
2022/12/11 05:29:41;;;;;;;22.42;14.18;;;;;;;;;;5046927;28;20020;-69
2022/12/11 05:32:07;;;;;;;26.20;15.10;;;;;;;;;;5046078;28;20068;-69
2022/12/11 05:34:32;;;;;;;22.00;14.35;;;;;;;;;;5050445;28;20024;-69
2022/12/11 05:36:57;;;;;;;25.70;14.80;;;;;;;;;;5050198;28;20051;-69
2022/12/11 05:39:22;;;;;;;21.48;14.38;;;;;;;;;;5046827;28;20029;-69
2022/12/11 05:41:48;;;;;;;21.05;13.38;;;;;;;;;;5052679;28;20025;-69
2022/12/11 05:44:13;;;;;;;22.35;13.13;;;;;;;;;;5055319;28;20012;-69
2022/12/11 05:46:39;;;;;;;21.92;13.93;;;;;;;;;;5061416;28;20024;-69
2022/12/11 05:49:04;;;;;;;24.17;13.95;;;;;;;;;;5051463;28;20032;-69
2022/12/11 05:51:30;;;;;;;24.45;14.38;;;;;;;;;;5062535;28;20063;-69
2022/12/11 05:53:56;;;;;;;24.42;14.27;;;;;;;;;;5050480;28;20025;-69
2022/12/11 05:56:25;;;;;;;19.92;13.20;;;;;;;;;;5051218;28;20041;-69
2022/12/11 05:58:50;;;;;;;18.10;12.50;;;;;;;;;;5057345;28;20025;-69
2022/12/11 06:01:17;;;;;;;20.58;13.07;;;;;;;;;;5050184;28;20024;-69
2022/12/11 06:03:43;;;;;;;19.95;12.98;;;;;;;;;;5046864;28;20143;-70
2022/12/11 06:06:08;;;;;;;19.48;12.93;;;;;;;;;;5055988;28;20016;-69
2022/12/11 06:08:34;;;;;;;22.70;13.32;;;;;;;;;;5039205;28;20036;-69
2022/12/11 06:10:59;;;;;;;18.98;12.80;;;;;;;;;;5042523;28;20021;-69
2022/12/11 06:13:25;;;;;;;19.17;13.32;;;;;;;;;;5049137;28;20029;-70
2022/12/11 06:15:50;;;;;;;22.60;12.10;;;;;;;;;;5062619;28;20475;-69
2022/12/11 06:18:16;;;;;;;20.95;12.90;;;;;;;;;;5053874;28;20365;-68
2022/12/11 06:20:41;;;;;;;17.58;11.40;;;;;;;;;;5054173;28;20036;-69
2022/12/11 06:23:06;;;;;;;21.75;13.27;;;;;;;;;;5051181;28;20443;-69
2022/12/11 06:25:32;;;;;;;21.10;12.57;;;;;;;;;;5050597;28;20029;-69
2022/12/11 06:27:57;;;;;;;18.13;11.63;;;;;;;;;;5052131;28;20451;-69
2022/12/11 06:30:22;;;;;;;18.65;12.57;;;;;;;;;;5058670;28;20029;-69
2022/12/11 06:32:48;;;;;;;23.45;12.90;;;;;;;;;;5053511;28;20048;-70
2022/12/11 06:35:13;;;;;;;17.20;11.45;;;;;;;;;;5057934;28;20096;-71
2022/12/11 06:37:41;;;;;;;20.92;11.82;;;;;;;;;;5050345;28;20434;-70
2022/12/11 06:40:07;;;;;;;21.73;12.82;;;;;;;;;;5049885;28;20033;-70
2022/12/11 06:42:33;;;;;;;17.67;12.15;;;;;;;;;;5052524;28;20013;-67
2022/12/11 06:44:58;;;;;;;26.60;12.63;;;;;;;;;;5049037;28;20112;-68
2022/12/11 06:47:30;;;;;;;17.98;11.70;;;;;;;;;;5052547;28;20354;-68
2022/12/11 06:49:55;;;;;;;21.40;12.38;;;;;;;;;;5041897;28;20108;-68
2022/12/11 06:52:21;;;;;;;19.05;12.07;;;;;;;;;;5044270;28;20101;-68
2022/12/11 06:54:47;;;;;;;18.40;12.38;;;;;;;;;;5054683;28;20107;-68
2022/12/11 06:57:12;;;;;;;20.55;12.02;;;;;;;;;;5037054;28;20061;-68
2022/12/11 06:59:37;;;;;;;18.38;12.25;;;;;;;;;;5040004;28;20040;-68
2022/12/11 07:02:03;;;;;;;18.27;11.77;;;;;;;;;;5038614;28;20020;-67
2022/12/11 07:04:29;;;;;;;19.73;11.90;;;;;;;;;;5041098;28;20013;-68
2022/12/11 07:06:54;;;;;;;24.27;11.90;;;;;;;;;;5039401;28;20029;-68
2022/12/11 07:09:21;;;;;;;26.77;12.75;;;;;;;;;;5037011;28;20086;-68
2022/12/11 07:11:48;;;;;;;23.63;12.90;;;;;;;;;;5038585;28;20078;-68
2022/12/11 07:14:13;;;;;;;20.63;12.82;;;;;;;;;;5039947;28;20040;-69
2022/12/11 07:16:38;;;;;;;21.73;13.02;;;;;;;;;;5063091;28;20474;-69
2022/12/11 07:19:03;;;;;;;19.65;12.27;;;;;;;;;;5044254;28;20026;-69
2022/12/11 07:21:29;;;;;;;17.25;11.70;;;;;;;;;;5038636;28;20024;-69
2022/12/11 07:23:54;;;;;;;26.67;14.30;;;;;;;;;;5036198;28;20128;-69
2022/12/11 07:26:20;;;;;;;20.27;13.32;;;;;;;;;;5038252;28;20033;-69
2022/12/11 07:28:46;;;;;;;20.83;13.60;;;;;;;;;;5035997;28;20024;-69
2022/12/11 07:31:12;;;;;;;18.55;12.60;;;;;;;;;;5025995;28;20017;-69
2022/12/11 07:33:38;;;;;;;22.02;13.32;;;;;;;;;;5037922;28;20128;-69
2022/12/11 07:36:04;;;;;;;22.00;14.07;;;;;;;;;;5039388;28;20078;-69
2022/12/11 07:38:30;;;;;;;20.73;12.75;;;;;;;;;;5036913;28;20029;-68
2022/12/11 07:40:55;;;;;;;24.67;14.20;;;;;;;;;;5040461;28;20100;-68
2022/12/11 07:43:20;;;;;;;23.30;13.38;;;;;;;;;;5037019;28;20014;-69
2022/12/11 07:45:46;;;;;;;20.05;12.73;;;;;;;;;;5039473;28;20021;-69
2022/12/11 07:48:11;;;;;;;18.92;13.30;;;;;;;;;;5035751;28;20029;-68
2022/12/11 07:50:37;;;;;;;20.27;13.57;;;;;;;;;;5049375;28;20024;-68
2022/12/11 07:53:02;;;;;;;22.67;14.07;;;;;;;;;;5036495;28;20025;-67
2022/12/11 07:55:27;;;;;;;23.15;15.55;;;;;;;;;;5042114;28;20017;-68
2022/12/11 07:57:52;;;;;;;23.60;14.20;;;;;;;;;;5044345;28;20032;-68
2022/12/11 08:00:18;;;;;;;22.90;14.73;;;;;;;;;;5046465;28;20023;-70
2022/12/11 08:02:43;;;;;;;23.20;15.18;;;;;;;;;;5044145;28;20479;-69
2022/12/11 08:05:08;;;;;;;25.23;15.70;;;;;;;;;;5042695;28;20013;-70
2022/12/11 08:07:34;;;;;;;25.85;15.13;;;;;;;;;;5038587;28;20058;-69
2022/12/11 08:09:59;;;;;;;26.48;16.38;;;;;;;;;;5048780;28;20013;-70
2022/12/11 08:12:25;;;;;;;23.48;15.55;;;;;;;;;;5044192;28;20040;-69
2022/12/11 08:14:50;;;;;;;27.00;16.90;;;;;;;;;;5052146;28;20443;-69
2022/12/11 08:17:15;;;;;;;24.30;17.08;;;;;;;;;;5051057;28;20030;-69
2022/12/11 08:19:40;;;;;;;22.73;15.68;;;;;;;;;;5033967;28;20017;-69
2022/12/11 08:22:06;;;;;;;26.13;16.48;;;;;;;;;;5033705;28;20021;-70
2022/12/11 08:24:31;;;;;;;26.25;16.75;;;;;;;;;;5033830;28;20021;-69
2022/12/11 08:26:56;;;;;;;29.23;16.55;;;;;;;;;;5036557;28;20060;-69
2022/12/11 08:29:21;;;;;;;26.30;16.13;;;;;;;;;;5046418;28;20368;-69
2022/12/11 08:31:47;;;;;;;21.27;15.35;;;;;;;;;;5040960;28;20027;-69
2022/12/11 08:34:13;;;;;;;23.23;15.20;;;;;;;;;;5051203;28;20104;-70
2022/12/11 08:36:38;;;;;;;25.05;16.13;;;;;;;;;;5033501;28;20017;-70
2022/12/11 08:39:03;;;;;;;23.00;15.35;;;;;;;;;;5047434;28;20029;-70
2022/12/11 08:41:29;;;;;;;19.83;14.85;;;;;;;;;;5053279;28;20469;-70
2022/12/11 08:43:54;;;;;;;22.38;14.13;;;;;;;;;;5058178;28;20025;-70
2022/12/11 08:46:22;;;;;;;20.02;13.10;;;;;;;;;;5047761;28;20522;-70
2022/12/11 08:48:47;;;;;;;22.33;14.50;;;;;;;;;;5049471;28;20025;-70
2022/12/11 08:51:13;;;;;;;22.83;14.50;;;;;;;;;;5047963;28;20523;-70
2022/12/11 08:53:39;;;;;;;19.45;12.60;;;;;;;;;;5048534;28;20484;-70
2022/12/11 08:56:09;;;;;;;21.35;12.60;;;;;;;;;;5058384;28;20098;-70
2022/12/11 08:58:34;;;;;;;20.75;11.68;;;;;;;;;;5047717;28;20025;-70
2022/12/11 09:01:04;;;;;;;21.05;12.88;;;;;;;;;;5048080;28;20096;-70
2022/12/11 09:03:29;;;;;;;21.45;12.68;;;;;;;;;;5049291;28;20108;-70
2022/12/11 09:05:55;;;;;;;21.73;12.13;;;;;;;;;;5049708;28;20471;-70
2022/12/11 09:08:20;;;;;;;18.23;11.93;;;;;;;;;;5049795;28;20035;-69
2022/12/11 09:10:45;;;;;;;21.08;11.93;;;;;;;;;;5045481;28;20027;-70
2022/12/11 09:13:10;;;;;;;19.48;12.07;;;;;;;;;;5049468;28;20087;-70
2022/12/11 09:15:39;;;;;;;21.05;12.57;;;;;;;;;;5053721;28;20023;-70
2022/12/11 09:18:04;;;;;;;19.45;12.30;;;;;;;;;;5050439;28;20010;-69
2022/12/11 09:20:29;;;;;;;17.92;12.40;;;;;;;;;;5043088;28;20013;-69
2022/12/11 09:22:55;;;;;;;19.92;12.75;;;;;;;;;;5050056;28;20099;-69
2022/12/11 09:25:20;;;;;;;19.15;12.43;;;;;;;;;;5052357;28;20021;-69
2022/12/11 09:27:46;;;;;;;20.23;11.95;;;;;;;;;;5048638;28;20419;-70
2022/12/11 09:30:11;;;;;;;24.90;12.45;;;;;;;;;;5043091;28;20208;-70
2022/12/11 09:32:36;;;;;;;18.05;13.20;;;;;;;;;;5041066;28;20526;-70
2022/12/11 09:35:01;;;;;;;16.85;12.63;;;;;;;;;;5042108;28;20036;-69
2022/12/11 09:37:27;;;;;;;19.40;12.77;;;;;;;;;;5050658;28;20036;-70
2022/12/11 09:39:52;;;;;;;23.33;13.68;;;;;;;;;;5051752;28;20506;-70
2022/12/11 09:42:20;;;;;;;17.60;12.25;;;;;;;;;;5051863;28;20108;-70
2022/12/11 09:44:53;;;;;;;23.02;13.63;;;;;;;;;;5052495;28;20150;-69
2022/12/11 09:47:39;;;;;;;24.90;14.50;;;;;;;;;;5048004;28;20029;-69
2022/12/11 09:50:31;;;;;;;18.10;12.20;;;;;;;;;;5048803;28;20017;-70
2022/12/11 09:53:09;;;;;;;20.33;13.85;;;;;;;;;;5051006;28;20119;-69
2022/12/11 09:55:39;;;;;;;21.05;13.55;;;;;;;;;;5046604;28;20022;-69
2022/12/11 09:58:17;;;;;;;19.38;13.18;;;;;;;;;;5040421;28;20624;-69
2022/12/11 10:00:45;;;;;;;20.27;13.35;;;;;;;;;;5031792;28;20032;-69
2022/12/11 10:03:13;;;;;;;21.10;12.95;;;;;;;;;;5045332;28;20545;-70
2022/12/11 10:05:41;;;;;;;21.77;13.02;;;;;;;;;;5047597;28;20567;-70
2022/12/11 10:08:32;;;;;;;18.38;13.63;;;;;;;;;;5045739;28;20021;-70
2022/12/11 10:11:00;;;;;;;23.38;13.70;;;;;;;;;;5025895;28;20041;-70
2022/12/11 10:13:25;;;;;;;19.20;13.30;;;;;;;;;;5042492;28;20029;-71
2022/12/11 10:15:54;;;;;;;24.83;14.50;;;;;;;;;;5056761;28;20489;-69
2022/12/11 10:18:21;;;;;;;19.73;13.48;;;;;;;;;;5046096;28;20028;-70
2022/12/11 10:20:48;;;;;;;18.35;13.10;;;;;;;;;;5042650;28;20100;-68
2022/12/11 10:23:17;;;;;;;19.00;12.77;;;;;;;;;;5031581;28;20081;-68
2022/12/11 10:25:46;;;;;;;22.65;14.10;;;;;;;;;;5031559;28;20033;-73
2022/12/11 10:28:13;;;;;;;23.58;14.18;;;;;;;;;;5043674;28;20017;-72
2022/12/11 10:30:41;;;;;;;18.90;12.98;;;;;;;;;;5052451;28;20033;-72
2022/12/11 10:33:09;;;;;;;21.35;14.02;;;;;;;;;;5041039;28;20017;-76
2022/12/11 10:35:35;;;;;;;21.65;15.65;;;;;;;;;;5043180;28;20029;-77
2022/12/11 10:38:09;;;;;;;18.60;13.82;;;;;;;;;;5044427;28;20048;-76
2022/12/11 10:40:35;;;;;;;20.05;14.05;;;;;;;;;;5029064;28;20024;-75
2022/12/11 10:43:02;;;;;;;19.05;13.95;;;;;;;;;;5049283;28;20052;-67
2022/12/11 10:45:27;;;;;;;22.00;14.50;;;;;;;;;;5040824;28;20464;-69
2022/12/11 10:48:00;;;;;;;23.20;14.52;;;;;;;;;;5053488;28;20391;-69
2022/12/11 10:50:26;;;;;;;25.70;16.38;;;;;;;;;;5040316;28;20389;-68
2022/12/11 10:52:52;;;;;;;20.02;14.77;;;;;;;;;;5044692;28;20047;-76
2022/12/11 10:55:21;;;;;;;22.38;14.13;;;;;;;;;;5040180;28;20021;-71
2022/12/11 10:57:53;;;;;;;18.45;14.90;;;;;;;;;;5052493;28;20471;-70
2022/12/11 11:00:29;;;;;;;20.67;14.75;;;;;;;;;;5041355;28;20030;-70
2022/12/11 11:02:54;;;;;;;20.45;15.32;;;;;;;;;;5046861;28;20025;-65
2022/12/11 11:05:29;;;;;;;18.67;13.93;;;;;;;;;;5040150;28;20038;-67
2022/12/11 11:08:09;;;;;;;20.63;14.60;;;;;;;;;;5017663;28;20013;-70
2022/12/11 11:10:35;;;;;;;18.35;12.80;;;;;;;;;;5044034;28;20021;-70
2022/12/11 11:13:00;;;;;;;18.63;13.52;;;;;;;;;;5041013;28;20555;-64
2022/12/11 11:15:27;;;;;;;20.00;12.73;;;;;;;;;;5052384;28;20025;-66
2022/12/11 11:17:53;;;;;;;21.38;13.88;;;;;;;;;;5048011;28;20484;-68
2022/12/11 11:20:20;;;;;;;20.75;14.30;;;;;;;;;;5045879;28;20063;-67
2022/12/11 11:22:50;;;;;;;18.25;12.75;;;;;;;;;;5046965;28;20031;-67
2022/12/11 11:25:19;;;;;;;21.50;13.68;;;;;;;;;;5047733;28;20098;-66
2022/12/11 11:27:48;;;;;;;24.00;14.25;;;;;;;;;;5041930;28;20033;-68
2022/12/11 11:30:34;;;;;;;20.08;13.68;;;;;;;;;;5034504;28;20029;-66
2022/12/11 11:33:03;;;;;;;16.48;12.60;;;;;;;;;;5036033;28;20025;-66
2022/12/11 11:35:29;;;;;;;17.40;12.63;;;;;;;;;;5020800;28;20018;-67
2022/12/11 11:38:13;;;;;;;23.45;14.27;;;;;;;;;;5034753;28;20022;-67
2022/12/11 11:40:41;;;;;;;21.13;13.37;;;;;;;;;;5041207;28;20020;-66
2022/12/11 11:43:15;;;;;;;18.55;14.02;;;;;;;;;;5038902;28;20279;-65
2022/12/11 11:45:46;;;;;;;18.00;13.77;;;;;;;;;;5035016;28;20109;-65
2022/12/11 11:48:30;;;;;;;18.73;13.10;;;;;;;;;;5040299;28;20045;-65
2022/12/11 11:50:56;;;;;;;;;;;;;;;;;;5040728;28;20496;-65
2022/12/11 11:53:23;;;;;;;18.25;12.82;;;;;;;;;;5037277;28;20299;-65
2022/12/11 11:55:57;;;;;;;18.55;13.45;;;;;;;;;;5037280;28;20482;-66
2022/12/11 11:58:23;;;;;;;;;;;;;;;;;;5036710;28;20026;-66
2022/12/11 12:00:49;;;;;;;14.85;12.35;;;;;;;;;;5037767;28;19905;-66
2022/12/11 12:03:17;;;;;;;23.25;13.77;;;;;;;;;;5032766;28;20014;-64
2022/12/11 12:05:45;;;;;;;19.38;14.48;;;;;;;;;;5034094;28;20029;-66
2022/12/11 12:08:23;;;;;;;22.13;16.08;;;;;;;;;;5033928;28;20031;-66
2022/12/11 12:11:01;;;;;;;20.13;15.15;;;;;;;;;;5036870;28;20056;-67
2022/12/11 12:13:33;;;;;;;21.52;14.68;;;;;;;;;;5052099;28;20131;-67
2022/12/11 12:16:00;;;;;;;20.23;15.35;;;;;;;;;;5059295;28;20051;-67
2022/12/11 12:18:28;;;;;;;25.48;18.27;;;;;;;;;;5044701;28;20033;-67
2022/12/11 12:20:53;;;;;;;21.63;15.63;;;;;;;;;;5051251;28;20407;-68
2022/12/11 12:23:41;;;;;;;22.38;16.23;;;;;;;;;;5039072;28;20013;-68
2022/12/11 12:26:07;;;;;;;19.02;14.20;;;;;;;;;;5035334;28;20104;-69
2022/12/11 12:28:40;;;;;;;20.50;15.38;;;;;;;;;;5035996;28;20104;-70
2022/12/11 12:31:05;;;;;;;21.55;15.43;;;;;;;;;;5035949;28;20033;-68
2022/12/11 12:34:00;;;;;;;20.55;14.55;;;;;;;;;;5033687;28;20372;-69
2022/12/11 12:36:44;;;;;;;25.45;14.85;;;;;;;;;;5031595;28;20083;-68
2022/12/11 12:39:18;;;;;;;20.85;14.65;;;;;;;;;;5035962;28;20373;-68
2022/12/11 12:41:55;;;;;;;21.77;15.93;;;;;;;;;;5020946;28;20933;-68
2022/12/11 12:44:22;;;;;;;22.00;15.13;;;;;;;;;;5017772;28;20116;-68
2022/12/11 12:46:58;;;;;;;26.42;15.32;;;;;;;;;;5033237;28;20025;-68
2022/12/11 12:49:38;;;;;;;21.25;15.55;;;;;;;;;;5022406;28;20027;-67
2022/12/11 12:52:05;;;;;;;22.02;14.38;;;;;;;;;;5034244;28;20029;-68
2022/12/11 12:54:32;;;;;;;23.50;16.05;;;;;;;;;;5036221;28;20468;-67
2022/12/11 12:56:58;;;;;;;24.55;16.35;;;;;;;;;;5034100;28;20036;-68
2022/12/11 12:59:24;;;;;;;23.58;15.48;;;;;;;;;;5035972;28;20025;-68
2022/12/11 13:01:53;;;;;;;23.30;15.90;;;;;;;;;;5034118;28;20030;-68
2022/12/11 13:04:27;;;;;;;20.10;14.35;;;;;;;;;;5037541;28;20018;-68
2022/12/11 13:06:52;;;;;;;21.27;14.77;;;;;;;;;;5034494;28;20024;-68
2022/12/11 13:09:25;;;;;;;24.67;15.95;;;;;;;;;;5031384;28;20480;-68
2022/12/11 13:11:56;;;;;;;24.23;14.90;;;;;;;;;;5035227;28;20418;-67
2022/12/11 13:14:26;;;;;;;17.92;13.02;;;;;;;;;;5030707;28;20051;-67
2022/12/11 13:17:03;;;;;;;21.63;14.60;;;;;;;;;;5033131;28;20025;-68
2022/12/11 13:19:29;;;;;;;21.58;13.25;;;;;;;;;;5033723;28;20383;-68
2022/12/11 13:21:54;;;;;;;21.85;13.82;;;;;;;;;;5037951;28;20021;-73
2022/12/11 13:24:20;;;;;;;23.25;13.77;;;;;;;;;;5034742;28;20028;-70
2022/12/11 13:26:45;;;;;;;19.95;13.63;;;;;;;;;;5035841;28;20019;-73
2022/12/11 13:29:29;;;;;;;17.17;13.45;;;;;;;;;;5036407;28;20056;-66
2022/12/11 13:31:59;;;;;;;23.52;14.68;;;;;;;;;;5031801;28;20100;-68
2022/12/11 13:34:27;;;;;;;17.75;12.68;;;;;;;;;;5031396;28;20029;-68
2022/12/11 13:36:53;;;;;;;18.15;13.35;;;;;;;;;;5033472;28;20067;-71
2022/12/11 13:39:26;;;;;;;21.50;14.18;;;;;;;;;;5034009;28;20056;-74
2022/12/11 13:41:53;;;;;;;18.20;12.63;;;;;;;;;;5024259;28;20021;-68
2022/12/11 13:44:29;;;;;;;19.92;12.48;;;;;;;;;;5033680;28;20024;-69
2022/12/11 13:46:55;;;;;;;19.23;13.15;;;;;;;;;;5030612;28;20021;-68
2022/12/11 13:49:30;;;;;;;21.13;13.65;;;;;;;;;;5029264;28;20049;-70
2022/12/11 13:51:59;;;;;;;21.55;14.05;;;;;;;;;;5036435;28;20467;-70
2022/12/11 13:54:25;;;;;;;22.40;13.00;;;;;;;;;;5043679;28;20022;-70
2022/12/11 13:56:57;;;;;;;20.42;12.90;;;;;;;;;;5033871;28;20030;-70
2022/12/11 13:59:26;;;;;;;21.17;13.27;;;;;;;;;;5034313;28;20013;-70
2022/12/11 14:01:53;;;;;;;22.85;13.27;;;;;;;;;;5032521;28;20021;-70
2022/12/11 14:04:19;;;;;;;20.60;13.70;;;;;;;;;;5036057;28;20021;-70
2022/12/11 14:06:45;;;;;;;26.33;13.65;;;;;;;;;;5037481;28;20061;-71
2022/12/11 14:09:15;;;;;;;21.65;13.00;;;;;;;;;;5036125;28;20071;-70
2022/12/11 14:11:41;;;;;;;18.40;13.00;;;;;;;;;;5039896;28;20113;-70
2022/12/11 14:14:21;;;;;;;19.95;12.18;;;;;;;;;;5041443;28;20033;-70
2022/12/11 14:16:48;;;;;;;24.58;13.45;;;;;;;;;;5036962;28;20033;-70
2022/12/11 14:19:13;;;;;;;16.85;11.93;;;;;;;;;;5038404;28;20013;-70
2022/12/11 14:21:39;;;;;;;20.92;12.57;;;;;;;;;;5039047;28;20534;-70
2022/12/11 14:24:07;;;;;;;18.08;12.05;;;;;;;;;;5034271;28;20463;-70
2022/12/11 14:26:33;;;;;;;19.67;13.07;;;;;;;;;;5043152;28;20025;-71
2022/12/11 14:28:59;;;;;;;17.67;12.02;;;;;;;;;;5037773;28;20013;-69
2022/12/11 14:31:36;;;;;;;17.73;12.27;;;;;;;;;;5049273;28;20421;-68